Aérodrome :
LOGIN :

S'inscrire | Disclaimer

   EN    FR    IT 

 










Légende :    VFR   VFR Marginal   IFR   IFR Intensif   IFR Très Intensif
Visi : 
Plafond : 
>= 8 km
>= 3000ft
5 à 8 km
1000 à 3000 ft
1500m à 5 km
500 à 1000 ft
800 à 1500m
200 à 500 ft
< 800m
< 200 ft
Symboles :   Orages  Brouillard  Fortes neiges  Fortes précipitations  Vent > 20 kt
SIGMETs :   Divers  Orages  Givrage  Turbulence  Onde Orograph.  Cendres Volcan.







- Altitude de l'aérodrome : 277 ft
- Code IATA : JER
- Voir les cartes d'approche


EGJJ - Jersey

DERNIER METAR :
  • 232150Z AUTO 21013KT 9999 SCT009/// BKN010/// OVC013/// 12/11 Q1019 REDZ

METARs EXPIRÉS :
  • 232120Z 21014KT 9999 FEW002 SCT010 BKN013 12/11 Q1019
  • 232050Z 21013KT 9999 FEW002 BKN012 12/11 Q1019
  • 232020Z 21012KT 180V240 9999 FEW003 BKN014 12/11 Q1019
  • 231920Z 21011KT 9999 SCT003 BKN008 12/11 Q1019
  • 231850Z 21013KT 9000 2000SE VCFG FEW000 SCT002 BKN009 12/12 Q1019 REDZ

TAF TAF EGJJ
Valide du 23 à 21h jusqu'au 24 à 06h UTC


231954Z 2321/2406 21015KT 9000 -DZ FEW003 BKN010
TEMPO 2321/2406 3000 RADZ BKN001
PROB30
TEMPO 2321/2406 0300 FG BKN000
ATIS : +44 1534 498 073
Pas de NOTAMs connus pour ce terrain.



MET'MAP, la Météo Aéronautique d'un coup d'oeil ! - Copyright ORBIFLY Décembre 2007 - Disclaimer

ORBIFLY MET'MAP TEAM :

Programmation & Développement : Alexandra Zaïnal
Conception & Développement : Baudouin d'Aumeries
Co-Programmation & Développement : Marc-Olivier Méhu
Soutien technique & logistique : Manuel Goepfert

Contact : metmap@orbifly.com




SOURCES & CREDITS :

   NOAA